LELN

Leon Airport

León, Spain
TAF LELN 181700Z 1818/1903 21007KT 9999 FEW035 PROB30 TEMPO 1818/1820 4000 SHRA FEW040TCU BECMG 1818/1820 01010KT
Issued Valid From Valid To
Jul-18 @ 17:00 UTC
(5 hours ago)
Jul-18 @ 18:00 UTC
(4 hours ago)
Jul-19 @ 03:00 UTC
(in 5 hours)
Jul-18 @ 18:00 to Jul-19 @ 03:00
TAF LELN 181700Z 1818/1903 21007KT 9999 FEW035
Wind Visibility Clouds
210° at 7 knots 10,000+ meters
  • Few at 3,500' AGL
Expired Click to View Jul-18 @ 18:00 to Jul-18 @ 20:00
PROB30 TEMPO 1818/1820 4000 SHRA FEW040TCU
Visibility Clouds Conditions
4,007 meters
  • Few at 4,000' AGL
  • Rain
Becoming Jul-18 @ 18:00 to Jul-19 @ 03:00
BECMG 1818/1820 01010KT
Wind Visibility Clouds
10° at 10 knots 10,000+ meters
  • Few at 3,500' AGL
TAF LELN 181700Z 1818/1903 21007KT 9999 FEW035 PROB30 TEMPO 1818/1820 4000 SHRA FEW040TCU BECMG 1818/1820 01010KT
Issued Jul-18 @ 17:00 UTC
(5 hours ago)
Valid From Jul-18 @ 18:00 UTC
(4 hours ago)
Valid To Jul-19 @ 03:00 UTC
(in 5 hours)
Jul-18 @ 18:00 - Jul-19 @ 03:00
Wind Visibility
210° at 7 knots 10,000+ meters
Clouds
  • Few at 3,500' AGL
Jul-18 @ 18:00 - Jul-18 @ 20:00
Clouds
  • Few at 4,000' AGL
Conditions
  • Rain
Becoming Jul-18 @ 18:00 - Jul-19 @ 03:00
Wind Visibility
10° at 10 knots 10,000+ meters
Clouds
  • Few at 3,500' AGL